sensor_id;sensor_type;location;lat;lon;timestamp;temperature;humidity
8824;DHT22;4448;50.904;4.694;2023-07-13T00:02:25;20.10;99.90
8824;DHT22;4448;50.904;4.694;2023-07-13T00:04:52;20.20;99.90
8824;DHT22;4448;50.904;4.694;2023-07-13T00:07:17;20.20;99.90
8824;DHT22;4448;50.904;4.694;2023-07-13T00:09:46;20.20;99.90
8824;DHT22;4448;50.904;4.694;2023-07-13T00:12:24;20.10;99.90
8824;DHT22;4448;50.904;4.694;2023-07-13T00:14:50;20.10;99.90
8824;DHT22;4448;50.904;4.694;2023-07-13T00:17:16;20.10;99.90
8824;DHT22;4448;50.904;4.694;2023-07-13T00:19:42;20.10;99.90
8824;DHT22;4448;50.904;4.694;2023-07-13T00:22:08;20.10;99.90
8824;DHT22;4448;50.904;4.694;2023-07-13T00:24:33;20.00;99.90
8824;DHT22;4448;50.904;4.694;2023-07-13T00:27:01;20.00;99.90
8824;DHT22;4448;50.904;4.694;2023-07-13T00:29:27;20.00;99.90
8824;DHT22;4448;50.904;4.694;2023-07-13T00:31:52;19.90;99.90
8824;DHT22;4448;50.904;4.694;2023-07-13T00:34:18;19.90;99.90
8824;DHT22;4448;50.904;4.694;2023-07-13T00:36:43;19.80;99.90
8824;DHT22;4448;50.904;4.694;2023-07-13T00:39:09;19.80;99.90
8824;DHT22;4448;50.904;4.694;2023-07-13T00:41:35;19.80;99.90
8824;DHT22;4448;50.904;4.694;2023-07-13T00:44:02;19.80;99.90
8824;DHT22;4448;50.904;4.694;2023-07-13T00:46:32;19.70;99.90
8824;DHT22;4448;50.904;4.694;2023-07-13T00:49:04;21.20;99.90
8824;DHT22;4448;50.904;4.694;2023-07-13T00:51:45;19.70;99.90
8824;DHT22;4448;50.904;4.694;2023-07-13T00:54:17;19.70;99.90
8824;DHT22;4448;50.904;4.694;2023-07-13T00:56:45;19.60;99.90
8824;DHT22;4448;50.904;4.694;2023-07-13T00:59:13;19.70;99.90
8824;DHT22;4448;50.904;4.694;2023-07-13T01:01:40;19.70;99.90
8824;DHT22;4448;50.904;4.694;2023-07-13T01:04:06;19.60;99.90
8824;DHT22;4448;50.904;4.694;2023-07-13T01:06:35;19.60;99.90
8824;DHT22;4448;50.904;4.694;2023-07-13T01:09:01;19.50;99.90
8824;DHT22;4448;50.904;4.694;2023-07-13T01:11:29;19.60;99.90
8824;DHT22;4448;50.904;4.694;2023-07-13T01:13:55;19.60;99.90
8824;DHT22;4448;50.904;4.694;2023-07-13T01:16:28;19.60;99.90
8824;DHT22;4448;50.904;4.694;2023-07-13T01:18:55;19.60;99.90
8824;DHT22;4448;50.904;4.694;2023-07-13T01:21:25;19.60;99.90
8824;DHT22;4448;50.904;4.694;2023-07-13T01:23:52;20.50;99.90
8824;DHT22;4448;50.904;4.694;2023-07-13T01:26:17;20.20;99.90
8824;DHT22;4448;50.904;4.694;2023-07-13T01:28:43;19.50;99.90
8824;DHT22;4448;50.904;4.694;2023-07-13T01:31:09;19.40;99.90
8824;DHT22;4448;50.904;4.694;2023-07-13T01:33:38;19.40;99.90
8824;DHT22;4448;50.904;4.694;2023-07-13T01:36:09;18.60;99.90
8824;DHT22;4448;50.904;4.694;2023-07-13T01:38:35;19.30;99.90
8824;DHT22;4448;50.904;4.694;2023-07-13T01:41:02;19.30;99.90
8824;DHT22;4448;50.904;4.694;2023-07-13T01:43:28;19.20;99.90
8824;DHT22;4448;50.904;4.694;2023-07-13T01:45:53;19.20;99.90
8824;DHT22;4448;50.904;4.694;2023-07-13T01:48:19;19.20;99.90
8824;DHT22;4448;50.904;4.694;2023-07-13T01:50:45;19.20;99.90
8824;DHT22;4448;50.904;4.694;2023-07-13T01:53:11;19.20;99.90
8824;DHT22;4448;50.904;4.694;2023-07-13T01:55:37;19.00;99.90
8824;DHT22;4448;50.904;4.694;2023-07-13T01:58:03;19.10;99.90
8824;DHT22;4448;50.904;4.694;2023-07-13T02:00:29;19.10;99.90
8824;DHT22;4448;50.904;4.694;2023-07-13T02:02:55;19.10;99.90
8824;DHT22;4448;50.904;4.694;2023-07-13T02:05:21;19.10;99.90
8824;DHT22;4448;50.904;4.694;2023-07-13T02:07:46;19.10;99.90
8824;DHT22;4448;50.904;4.694;2023-07-13T02:10:12;19.10;99.90
8824;DHT22;4448;50.904;4.694;2023-07-13T02:12:42;19.10;99.90
8824;DHT22;4448;50.904;4.694;2023-07-13T02:15:08;19.10;99.90
8824;DHT22;4448;50.904;4.694;2023-07-13T02:17:35;19.10;99.90
8824;DHT22;4448;50.904;4.694;2023-07-13T02:20:02;19.00;99.90
8824;DHT22;4448;50.904;4.694;2023-07-13T02:22:28;19.10;99.90
8824;DHT22;4448;50.904;4.694;2023-07-13T02:24:54;19.00;99.90
8824;DHT22;4448;50.904;4.694;2023-07-13T02:27:20;19.10;99.90
8824;DHT22;4448;50.904;4.694;2023-07-13T02:29:45;19.10;99.90
8824;DHT22;4448;50.904;4.694;2023-07-13T02:32:11;19.00;99.90
8824;DHT22;4448;50.904;4.694;2023-07-13T02:34:37;19.00;99.90
8824;DHT22;4448;50.904;4.694;2023-07-13T02:37:03;19.10;99.90
8824;DHT22;4448;50.904;4.694;2023-07-13T02:39:28;19.10;99.90
8824;DHT22;4448;50.904;4.694;2023-07-13T02:41:54;19.10;99.90
8824;DHT22;4448;50.904;4.694;2023-07-13T02:44:20;19.10;99.90
8824;DHT22;4448;50.904;4.694;2023-07-13T02:46:45;19.10;99.90
8824;DHT22;4448;50.904;4.694;2023-07-13T02:49:11;19.10;99.90
8824;DHT22;4448;50.904;4.694;2023-07-13T02:51:36;19.10;99.90
8824;DHT22;4448;50.904;4.694;2023-07-13T02:54:03;19.10;99.90
8824;DHT22;4448;50.904;4.694;2023-07-13T02:56:31;19.00;99.90
8824;DHT22;4448;50.904;4.694;2023-07-13T02:58:57;19.00;99.90
8824;DHT22;4448;50.904;4.694;2023-07-13T03:01:23;19.00;99.90
8824;DHT22;4448;50.904;4.694;2023-07-13T03:03:50;19.00;99.90
8824;DHT22;4448;50.904;4.694;2023-07-13T03:06:16;19.00;99.90
8824;DHT22;4448;50.904;4.694;2023-07-13T03:08:43;18.90;99.90
8824;DHT22;4448;50.904;4.694;2023-07-13T03:11:12;19.00;99.90
8824;DHT22;4448;50.904;4.694;2023-07-13T03:13:39;18.90;99.90
8824;DHT22;4448;50.904;4.694;2023-07-13T03:16:06;18.90;99.90
8824;DHT22;4448;50.904;4.694;2023-07-13T03:18:32;18.90;99.90
8824;DHT22;4448;50.904;4.694;2023-07-13T03:20:58;18.80;99.90
8824;DHT22;4448;50.904;4.694;2023-07-13T03:23:24;18.90;99.90
8824;DHT22;4448;50.904;4.694;2023-07-13T03:26:00;18.90;99.90
8824;DHT22;4448;50.904;4.694;2023-07-13T03:28:26;18.80;99.90
8824;DHT22;4448;50.904;4.694;2023-07-13T03:31:03;18.80;99.90
8824;DHT22;4448;50.904;4.694;2023-07-13T03:33:29;18.80;99.90
8824;DHT22;4448;50.904;4.694;2023-07-13T03:35:55;18.90;99.90
8824;DHT22;4448;50.904;4.694;2023-07-13T03:38:20;18.80;99.90
8824;DHT22;4448;50.904;4.694;2023-07-13T03:40:46;18.90;99.90
8824;DHT22;4448;50.904;4.694;2023-07-13T03:43:12;18.90;99.90
8824;DHT22;4448;50.904;4.694;2023-07-13T03:45:38;18.90;99.90
8824;DHT22;4448;50.904;4.694;2023-07-13T03:48:04;18.90;99.90
8824;DHT22;4448;50.904;4.694;2023-07-13T03:50:30;18.90;99.90
8824;DHT22;4448;50.904;4.694;2023-07-13T03:52:57;18.90;99.90
8824;DHT22;4448;50.904;4.694;2023-07-13T03:55:23;18.80;99.90
8824;DHT22;4448;50.904;4.694;2023-07-13T03:57:57;18.80;99.90
8824;DHT22;4448;50.904;4.694;2023-07-13T04:00:23;18.80;99.90
8824;DHT22;4448;50.904;4.694;2023-07-13T04:02:49;18.70;99.90
8824;DHT22;4448;50.904;4.694;2023-07-13T04:05:15;18.80;99.90
8824;DHT22;4448;50.904;4.694;2023-07-13T04:07:41;18.80;99.90
8824;DHT22;4448;50.904;4.694;2023-07-13T04:10:07;18.80;99.90
8824;DHT22;4448;50.904;4.694;2023-07-13T04:12:33;18.80;99.90
8824;DHT22;4448;50.904;4.694;2023-07-13T04:14:58;18.80;99.90
8824;DHT22;4448;50.904;4.694;2023-07-13T04:17:24;18.80;99.90
8824;DHT22;4448;50.904;4.694;2023-07-13T04:19:49;18.80;99.90
8824;DHT22;4448;50.904;4.694;2023-07-13T04:22:15;18.80;99.90
8824;DHT22;4448;50.904;4.694;2023-07-13T04:24:41;18.80;99.90
8824;DHT22;4448;50.904;4.694;2023-07-13T04:27:07;18.70;99.90
8824;DHT22;4448;50.904;4.694;2023-07-13T04:29:32;18.80;99.90
8824;DHT22;4448;50.904;4.694;2023-07-13T04:31:58;18.80;99.90
8824;DHT22;4448;50.904;4.694;2023-07-13T04:34:24;18.80;99.90
8824;DHT22;4448;50.904;4.694;2023-07-13T04:36:50;18.80;99.90
8824;DHT22;4448;50.904;4.694;2023-07-13T04:39:16;18.80;99.90
8824;DHT22;4448;50.904;4.694;2023-07-13T04:41:42;18.80;99.90
8824;DHT22;4448;50.904;4.694;2023-07-13T04:44:07;18.80;99.90
8824;DHT22;4448;50.904;4.694;2023-07-13T04:46:33;18.90;99.90
8824;DHT22;4448;50.904;4.694;2023-07-13T04:48:59;18.90;99.90
8824;DHT22;4448;50.904;4.694;2023-07-13T04:51:26;19.00;99.90
8824;DHT22;4448;50.904;4.694;2023-07-13T04:53:52;18.90;99.90
8824;DHT22;4448;50.904;4.694;2023-07-13T04:56:18;19.00;99.90
8824;DHT22;4448;50.904;4.694;2023-07-13T04:58:45;18.90;99.90
8824;DHT22;4448;50.904;4.694;2023-07-13T05:01:10;18.90;99.90
8824;DHT22;4448;50.904;4.694;2023-07-13T05:03:36;19.00;99.90
8824;DHT22;4448;50.904;4.694;2023-07-13T05:06:07;19.00;99.90
8824;DHT22;4448;50.904;4.694;2023-07-13T05:08:35;19.00;99.90
8824;DHT22;4448;50.904;4.694;2023-07-13T05:11:01;19.00;99.90
8824;DHT22;4448;50.904;4.694;2023-07-13T05:13:27;19.10;99.90
8824;DHT22;4448;50.904;4.694;2023-07-13T05:16:01;19.10;99.90
8824;DHT22;4448;50.904;4.694;2023-07-13T05:18:27;19.10;99.90
8824;DHT22;4448;50.904;4.694;2023-07-13T05:21:08;19.10;99.90
8824;DHT22;4448;50.904;4.694;2023-07-13T05:23:35;19.10;99.90
8824;DHT22;4448;50.904;4.694;2023-07-13T05:26:02;19.20;99.90
8824;DHT22;4448;50.904;4.694;2023-07-13T05:28:30;19.20;99.90
8824;DHT22;4448;50.904;4.694;2023-07-13T05:30:55;19.20;99.90
8824;DHT22;4448;50.904;4.694;2023-07-13T05:33:21;19.20;99.90
8824;DHT22;4448;50.904;4.694;2023-07-13T05:35:47;19.30;99.90
8824;DHT22;4448;50.904;4.694;2023-07-13T05:38:13;19.30;99.90
8824;DHT22;4448;50.904;4.694;2023-07-13T05:40:38;19.30;99.90
8824;DHT22;4448;50.904;4.694;2023-07-13T05:43:04;19.30;99.90
8824;DHT22;4448;50.904;4.694;2023-07-13T05:45:30;19.20;99.90
8824;DHT22;4448;50.904;4.694;2023-07-13T05:47:56;19.30;99.90
8824;DHT22;4448;50.904;4.694;2023-07-13T05:50:22;19.30;99.90
8824;DHT22;4448;50.904;4.694;2023-07-13T05:52:47;19.40;99.90
8824;DHT22;4448;50.904;4.694;2023-07-13T05:55:13;19.40;99.90
8824;DHT22;4448;50.904;4.694;2023-07-13T05:57:39;19.40;99.90
8824;DHT22;4448;50.904;4.694;2023-07-13T06:00:05;19.50;99.90
8824;DHT22;4448;50.904;4.694;2023-07-13T06:02:31;19.50;99.90
8824;DHT22;4448;50.904;4.694;2023-07-13T06:04:57;19.50;99.90
8824;DHT22;4448;50.904;4.694;2023-07-13T06:07:22;19.50;99.90
8824;DHT22;4448;50.904;4.694;2023-07-13T06:09:48;19.50;99.90
8824;DHT22;4448;50.904;4.694;2023-07-13T06:12:14;19.50;99.90
8824;DHT22;4448;50.904;4.694;2023-07-13T06:14:39;19.60;99.90
8824;DHT22;4448;50.904;4.694;2023-07-13T06:17:05;19.60;99.90
8824;DHT22;4448;50.904;4.694;2023-07-13T06:19:31;19.60;99.90
8824;DHT22;4448;50.904;4.694;2023-07-13T06:21:57;19.60;99.90
8824;DHT22;4448;50.904;4.694;2023-07-13T06:24:24;19.80;99.90
8824;DHT22;4448;50.904;4.694;2023-07-13T06:26:50;19.50;99.90
8824;DHT22;4448;50.904;4.694;2023-07-13T06:29:15;19.70;99.90
8824;DHT22;4448;50.904;4.694;2023-07-13T06:31:41;19.70;99.90
8824;DHT22;4448;50.904;4.694;2023-07-13T06:34:07;19.70;99.90
8824;DHT22;4448;50.904;4.694;2023-07-13T06:36:32;19.70;99.90
8824;DHT22;4448;50.904;4.694;2023-07-13T06:38:58;19.70;99.90
8824;DHT22;4448;50.904;4.694;2023-07-13T06:41:24;19.80;99.90
8824;DHT22;4448;50.904;4.694;2023-07-13T06:43:52;19.80;99.90
8824;DHT22;4448;50.904;4.694;2023-07-13T06:46:19;19.80;99.90
8824;DHT22;4448;50.904;4.694;2023-07-13T06:48:45;19.80;99.90
8824;DHT22;4448;50.904;4.694;2023-07-13T06:51:10;19.80;99.90
8824;DHT22;4448;50.904;4.694;2023-07-13T06:53:36;19.80;99.90
8824;DHT22;4448;50.904;4.694;2023-07-13T06:56:02;19.90;99.90
8824;DHT22;4448;50.904;4.694;2023-07-13T06:58:27;19.90;99.90
8824;DHT22;4448;50.904;4.694;2023-07-13T07:00:53;19.90;99.90
8824;DHT22;4448;50.904;4.694;2023-07-13T07:03:19;20.00;99.90
8824;DHT22;4448;50.904;4.694;2023-07-13T07:05:45;20.00;99.90
8824;DHT22;4448;50.904;4.694;2023-07-13T07:08:10;20.10;99.90
8824;DHT22;4448;50.904;4.694;2023-07-13T07:10:36;20.10;99.90
8824;DHT22;4448;50.904;4.694;2023-07-13T07:13:02;20.20;99.90
8824;DHT22;4448;50.904;4.694;2023-07-13T07:15:31;20.20;99.90
8824;DHT22;4448;50.904;4.694;2023-07-13T07:17:57;20.20;99.90
8824;DHT22;4448;50.904;4.694;2023-07-13T07:20:22;20.20;99.90
8824;DHT22;4448;50.904;4.694;2023-07-13T07:22:48;20.30;99.90
8824;DHT22;4448;50.904;4.694;2023-07-13T07:25:14;20.30;99.90
8824;DHT22;4448;50.904;4.694;2023-07-13T07:27:40;20.40;99.90
8824;DHT22;4448;50.904;4.694;2023-07-13T07:30:06;20.40;99.90
8824;DHT22;4448;50.904;4.694;2023-07-13T07:32:32;20.50;99.90
8824;DHT22;4448;50.904;4.694;2023-07-13T07:34:58;20.50;99.90
8824;DHT22;4448;50.904;4.694;2023-07-13T07:37:24;20.50;99.90
8824;DHT22;4448;50.904;4.694;2023-07-13T07:39:50;20.70;99.90
8824;DHT22;4448;50.904;4.694;2023-07-13T07:42:16;20.70;99.90
8824;DHT22;4448;50.904;4.694;2023-07-13T07:44:42;20.70;99.90
8824;DHT22;4448;50.904;4.694;2023-07-13T07:47:08;20.70;99.90
8824;DHT22;4448;50.904;4.694;2023-07-13T07:49:35;20.80;99.90
8824;DHT22;4448;50.904;4.694;2023-07-13T07:52:01;20.80;99.90
8824;DHT22;4448;50.904;4.694;2023-07-13T07:54:27;20.80;99.90
8824;DHT22;4448;50.904;4.694;2023-07-13T07:56:53;20.80;99.90
8824;DHT22;4448;50.904;4.694;2023-07-13T07:59:19;20.80;99.90
8824;DHT22;4448;50.904;4.694;2023-07-13T08:01:45;20.90;99.90
8824;DHT22;4448;50.904;4.694;2023-07-13T08:04:13;20.90;99.90
8824;DHT22;4448;50.904;4.694;2023-07-13T08:06:38;20.90;99.90
8824;DHT22;4448;50.904;4.694;2023-07-13T08:09:04;21.10;99.90
8824;DHT22;4448;50.904;4.694;2023-07-13T08:11:30;21.00;99.90
8824;DHT22;4448;50.904;4.694;2023-07-13T08:13:55;21.10;99.90
8824;DHT22;4448;50.904;4.694;2023-07-13T08:16:22;21.20;99.90
8824;DHT22;4448;50.904;4.694;2023-07-13T08:18:47;21.00;99.90
8824;DHT22;4448;50.904;4.694;2023-07-13T08:21:13;21.10;99.90
8824;DHT22;4448;50.904;4.694;2023-07-13T08:23:38;21.10;99.90
8824;DHT22;4448;50.904;4.694;2023-07-13T08:26:04;21.10;99.90
8824;DHT22;4448;50.904;4.694;2023-07-13T08:28:31;21.00;99.90
8824;DHT22;4448;50.904;4.694;2023-07-13T08:31:02;21.10;99.90
8824;DHT22;4448;50.904;4.694;2023-07-13T08:33:28;21.30;99.90
8824;DHT22;4448;50.904;4.694;2023-07-13T08:35:53;21.20;99.90
8824;DHT22;4448;50.904;4.694;2023-07-13T08:38:19;21.20;99.90
8824;DHT22;4448;50.904;4.694;2023-07-13T08:40:51;21.30;99.90
8824;DHT22;4448;50.904;4.694;2023-07-13T08:43:20;21.20;99.90
8824;DHT22;4448;50.904;4.694;2023-07-13T08:48:45;21.30;99.90
8824;DHT22;4448;50.904;4.694;2023-07-13T08:53:58;21.40;99.90
8824;DHT22;4448;50.904;4.694;2023-07-13T08:56:27;21.40;99.90
8824;DHT22;4448;50.904;4.694;2023-07-13T08:58:57;21.50;99.90
8824;DHT22;4448;50.904;4.694;2023-07-13T09:01:45;21.50;99.90
8824;DHT22;4448;50.904;4.694;2023-07-13T09:04:19;21.80;99.90
8824;DHT22;4448;50.904;4.694;2023-07-13T09:14:53;21.70;99.90
8824;DHT22;4448;50.904;4.694;2023-07-13T09:17:25;21.80;99.90
8824;DHT22;4448;50.904;4.694;2023-07-13T09:22:37;21.90;99.90
8824;DHT22;4448;50.904;4.694;2023-07-13T09:25:27;22.00;99.90
8824;DHT22;4448;50.904;4.694;2023-07-13T09:28:00;22.00;99.90
8824;DHT22;4448;50.904;4.694;2023-07-13T09:30:46;22.20;99.90
8824;DHT22;4448;50.904;4.694;2023-07-13T09:33:16;22.20;99.90
8824;DHT22;4448;50.904;4.694;2023-07-13T09:35:42;22.30;99.90
8824;DHT22;4448;50.904;4.694;2023-07-13T09:38:14;22.30;99.90
8824;DHT22;4448;50.904;4.694;2023-07-13T09:43:34;22.40;99.90
8824;DHT22;4448;50.904;4.694;2023-07-13T09:46:00;22.50;99.90
8824;DHT22;4448;50.904;4.694;2023-07-13T09:48:36;22.60;99.90
8824;DHT22;4448;50.904;4.694;2023-07-13T09:51:14;22.60;99.90
8824;DHT22;4448;50.904;4.694;2023-07-13T09:53:42;22.70;99.90
8824;DHT22;4448;50.904;4.694;2023-07-13T09:56:23;22.70;99.90
8824;DHT22;4448;50.904;4.694;2023-07-13T09:58:51;22.80;99.90
8824;DHT22;4448;50.904;4.694;2023-07-13T10:01:35;23.00;99.90
8824;DHT22;4448;50.904;4.694;2023-07-13T10:04:01;22.90;99.90
8824;DHT22;4448;50.904;4.694;2023-07-13T10:06:27;23.00;99.90
8824;DHT22;4448;50.904;4.694;2023-07-13T10:08:55;23.10;99.90
8824;DHT22;4448;50.904;4.694;2023-07-13T10:11:22;24.10;99.90
8824;DHT22;4448;50.904;4.694;2023-07-13T10:13:59;23.40;99.90
8824;DHT22;4448;50.904;4.694;2023-07-13T10:16:28;23.30;99.90
8824;DHT22;4448;50.904;4.694;2023-07-13T10:18:59;23.40;99.90
8824;DHT22;4448;50.904;4.694;2023-07-13T10:21:35;23.40;99.90
8824;DHT22;4448;50.904;4.694;2023-07-13T10:24:17;23.40;99.90
8824;DHT22;4448;50.904;4.694;2023-07-13T10:29:27;23.40;99.90
8824;DHT22;4448;50.904;4.694;2023-07-13T10:31:54;23.50;99.90
8824;DHT22;4448;50.904;4.694;2023-07-13T10:34:22;23.60;99.90
8824;DHT22;4448;50.904;4.694;2023-07-13T10:36:49;23.60;99.90
8824;DHT22;4448;50.904;4.694;2023-07-13T10:39:26;23.70;99.90
8824;DHT22;4448;50.904;4.694;2023-07-13T10:42:05;24.00;99.90
8824;DHT22;4448;50.904;4.694;2023-07-13T10:44:33;24.00;99.90
8824;DHT22;4448;50.904;4.694;2023-07-13T10:47:13;24.20;99.90
8824;DHT22;4448;50.904;4.694;2023-07-13T10:49:41;24.20;99.90
8824;DHT22;4448;50.904;4.694;2023-07-13T10:55:37;24.30;99.90
8824;DHT22;4448;50.904;4.694;2023-07-13T10:58:15;24.40;99.90
8824;DHT22;4448;50.904;4.694;2023-07-13T11:00:48;24.40;99.90
8824;DHT22;4448;50.904;4.694;2023-07-13T11:03:17;24.30;99.90
8824;DHT22;4448;50.904;4.694;2023-07-13T11:05:48;24.30;99.90
8824;DHT22;4448;50.904;4.694;2023-07-13T11:08:21;24.30;99.90
8824;DHT22;4448;50.904;4.694;2023-07-13T11:10:59;24.20;99.90
8824;DHT22;4448;50.904;4.694;2023-07-13T11:16:36;24.30;99.90
8824;DHT22;4448;50.904;4.694;2023-07-13T11:21:31;24.30;99.90
8824;DHT22;4448;50.904;4.694;2023-07-13T11:26:46;24.40;99.90
8824;DHT22;4448;50.904;4.694;2023-07-13T11:29:36;24.00;99.90
8824;DHT22;4448;50.904;4.694;2023-07-13T11:32:30;24.00;99.90
8824;DHT22;4448;50.904;4.694;2023-07-13T11:34:57;23.80;99.90
8824;DHT22;4448;50.904;4.694;2023-07-13T11:37:23;23.70;99.90
8824;DHT22;4448;50.904;4.694;2023-07-13T11:39:51;23.60;99.90
8824;DHT22;4448;50.904;4.694;2023-07-13T11:42:18;23.60;99.90
8824;DHT22;4448;50.904;4.694;2023-07-13T11:44:50;23.60;99.90
8824;DHT22;4448;50.904;4.694;2023-07-13T11:47:21;23.90;99.90
8824;DHT22;4448;50.904;4.694;2023-07-13T11:49:54;23.90;99.90
8824;DHT22;4448;50.904;4.694;2023-07-13T11:52:25;24.00;99.90
8824;DHT22;4448;50.904;4.694;2023-07-13T11:54:56;24.00;99.90
8824;DHT22;4448;50.904;4.694;2023-07-13T11:57:33;24.30;99.90
8824;DHT22;4448;50.904;4.694;2023-07-13T12:00:09;24.40;99.90
8824;DHT22;4448;50.904;4.694;2023-07-13T12:02:39;24.60;99.90
8824;DHT22;4448;50.904;4.694;2023-07-13T12:05:08;24.90;99.90
8824;DHT22;4448;50.904;4.694;2023-07-13T12:07:38;25.00;99.90
8824;DHT22;4448;50.904;4.694;2023-07-13T12:10:27;24.90;99.90
8824;DHT22;4448;50.904;4.694;2023-07-13T12:13:02;24.90;99.90
8824;DHT22;4448;50.904;4.694;2023-07-13T12:15:41;24.80;99.90
8824;DHT22;4448;50.904;4.694;2023-07-13T12:18:14;24.70;99.90
8824;DHT22;4448;50.904;4.694;2023-07-13T12:20:40;24.60;99.90
8824;DHT22;4448;50.904;4.694;2023-07-13T12:25:47;24.40;99.90
8824;DHT22;4448;50.904;4.694;2023-07-13T12:28:34;24.30;99.90
8824;DHT22;4448;50.904;4.694;2023-07-13T12:31:06;24.30;99.90
8824;DHT22;4448;50.904;4.694;2023-07-13T12:33:33;24.30;99.90
8824;DHT22;4448;50.904;4.694;2023-07-13T12:36:03;24.20;99.90
8824;DHT22;4448;50.904;4.694;2023-07-13T12:38:31;24.20;99.90
8824;DHT22;4448;50.904;4.694;2023-07-13T12:41:00;24.10;99.90
8824;DHT22;4448;50.904;4.694;2023-07-13T12:43:30;24.00;99.90
8824;DHT22;4448;50.904;4.694;2023-07-13T12:46:04;24.00;99.90
8824;DHT22;4448;50.904;4.694;2023-07-13T12:48:40;23.90;99.90
8824;DHT22;4448;50.904;4.694;2023-07-13T12:51:10;23.90;99.90
8824;DHT22;4448;50.904;4.694;2023-07-13T12:53:43;23.70;99.90
8824;DHT22;4448;50.904;4.694;2023-07-13T12:56:23;23.60;99.90
8824;DHT22;4448;50.904;4.694;2023-07-13T12:58:52;23.50;99.90
8824;DHT22;4448;50.904;4.694;2023-07-13T13:01:21;23.50;99.90
8824;DHT22;4448;50.904;4.694;2023-07-13T13:03:51;23.40;99.90
8824;DHT22;4448;50.904;4.694;2023-07-13T13:06:25;23.40;99.90
8824;DHT22;4448;50.904;4.694;2023-07-13T13:08:56;23.30;99.90
8824;DHT22;4448;50.904;4.694;2023-07-13T13:11:24;23.30;99.90
8824;DHT22;4448;50.904;4.694;2023-07-13T13:13:52;23.20;99.90
8824;DHT22;4448;50.904;4.694;2023-07-13T13:16:31;23.20;99.90
8824;DHT22;4448;50.904;4.694;2023-07-13T13:19:00;23.00;99.90
8824;DHT22;4448;50.904;4.694;2023-07-13T13:21:30;22.80;99.90
8824;DHT22;4448;50.904;4.694;2023-07-13T13:23:58;22.80;99.90
8824;DHT22;4448;50.904;4.694;2023-07-13T13:26:26;22.60;99.90
8824;DHT22;4448;50.904;4.694;2023-07-13T13:28:53;22.60;99.90
8824;DHT22;4448;50.904;4.694;2023-07-13T13:31:19;22.60;99.90
8824;DHT22;4448;50.904;4.694;2023-07-13T13:33:45;22.50;99.90
8824;DHT22;4448;50.904;4.694;2023-07-13T13:36:15;22.50;99.90
8824;DHT22;4448;50.904;4.694;2023-07-13T13:38:43;22.40;99.90
8824;DHT22;4448;50.904;4.694;2023-07-13T13:41:11;22.40;99.90
8824;DHT22;4448;50.904;4.694;2023-07-13T13:43:39;22.40;99.90
8824;DHT22;4448;50.904;4.694;2023-07-13T13:46:17;22.40;99.90
8824;DHT22;4448;50.904;4.694;2023-07-13T13:48:44;22.40;99.90
8824;DHT22;4448;50.904;4.694;2023-07-13T13:51:21;22.40;99.90
8824;DHT22;4448;50.904;4.694;2023-07-13T13:53:47;22.40;99.90
8824;DHT22;4448;50.904;4.694;2023-07-13T13:56:14;22.50;99.90
8824;DHT22;4448;50.904;4.694;2023-07-13T13:58:40;22.50;99.90
8824;DHT22;4448;50.904;4.694;2023-07-13T14:01:21;22.60;99.90
8824;DHT22;4448;50.904;4.694;2023-07-13T14:03:50;22.70;99.90
8824;DHT22;4448;50.904;4.694;2023-07-13T14:06:21;22.70;99.90
8824;DHT22;4448;50.904;4.694;2023-07-13T14:08:47;22.60;99.90
8824;DHT22;4448;50.904;4.694;2023-07-13T14:11:16;22.60;99.90
8824;DHT22;4448;50.904;4.694;2023-07-13T14:13:45;22.70;99.90
8824;DHT22;4448;50.904;4.694;2023-07-13T14:16:18;22.90;99.90
8824;DHT22;4448;50.904;4.694;2023-07-13T14:18:45;22.80;99.90
8824;DHT22;4448;50.904;4.694;2023-07-13T14:21:17;22.80;99.90
8824;DHT22;4448;50.904;4.694;2023-07-13T14:23:44;23.00;99.90
8824;DHT22;4448;50.904;4.694;2023-07-13T14:26:15;23.10;99.90
8824;DHT22;4448;50.904;4.694;2023-07-13T14:28:43;23.10;99.90
8824;DHT22;4448;50.904;4.694;2023-07-13T14:31:14;22.50;99.90
8824;DHT22;4448;50.904;4.694;2023-07-13T14:33:40;23.20;99.90
8824;DHT22;4448;50.904;4.694;2023-07-13T14:36:21;23.30;99.90
8824;DHT22;4448;50.904;4.694;2023-07-13T14:38:48;23.40;99.90
8824;DHT22;4448;50.904;4.694;2023-07-13T14:41:15;23.50;99.90
8824;DHT22;4448;50.904;4.694;2023-07-13T14:43:40;23.50;99.90
8824;DHT22;4448;50.904;4.694;2023-07-13T14:46:17;23.60;99.90
8824;DHT22;4448;50.904;4.694;2023-07-13T14:48:43;23.70;99.90
8824;DHT22;4448;50.904;4.694;2023-07-13T14:51:09;23.70;99.90
8824;DHT22;4448;50.904;4.694;2023-07-13T14:53:37;23.80;99.90
8824;DHT22;4448;50.904;4.694;2023-07-13T14:56:12;23.80;99.90
8824;DHT22;4448;50.904;4.694;2023-07-13T14:58:38;23.80;99.90
8824;DHT22;4448;50.904;4.694;2023-07-13T15:01:12;23.80;99.90
8824;DHT22;4448;50.904;4.694;2023-07-13T15:03:45;22.90;99.90
8824;DHT22;4448;50.904;4.694;2023-07-13T15:06:12;23.90;99.90
8824;DHT22;4448;50.904;4.694;2023-07-13T15:08:39;23.90;99.90
8824;DHT22;4448;50.904;4.694;2023-07-13T15:11:07;23.90;99.90
8824;DHT22;4448;50.904;4.694;2023-07-13T15:13:32;23.80;99.90
8824;DHT22;4448;50.904;4.694;2023-07-13T15:16:02;23.90;99.90
8824;DHT22;4448;50.904;4.694;2023-07-13T15:18:30;23.70;99.90
8824;DHT22;4448;50.904;4.694;2023-07-13T15:20:58;23.70;99.90
8824;DHT22;4448;50.904;4.694;2023-07-13T15:23:28;23.70;99.90
8824;DHT22;4448;50.904;4.694;2023-07-13T15:25:53;23.70;99.90
8824;DHT22;4448;50.904;4.694;2023-07-13T15:28:19;23.70;99.90
8824;DHT22;4448;50.904;4.694;2023-07-13T15:30:49;23.70;99.90
8824;DHT22;4448;50.904;4.694;2023-07-13T15:33:27;23.80;99.90
8824;DHT22;4448;50.904;4.694;2023-07-13T15:35:53;23.80;99.90
8824;DHT22;4448;50.904;4.694;2023-07-13T15:38:28;23.80;99.90
8824;DHT22;4448;50.904;4.694;2023-07-13T15:40:55;23.80;99.90
8824;DHT22;4448;50.904;4.694;2023-07-13T15:43:22;23.80;99.90
8824;DHT22;4448;50.904;4.694;2023-07-13T15:45:48;23.90;99.90
8824;DHT22;4448;50.904;4.694;2023-07-13T15:48:25;23.90;99.90
8824;DHT22;4448;50.904;4.694;2023-07-13T15:50:55;23.90;99.90
8824;DHT22;4448;50.904;4.694;2023-07-13T15:53:28;23.90;99.90
8824;DHT22;4448;50.904;4.694;2023-07-13T15:55:54;24.00;99.90
8824;DHT22;4448;50.904;4.694;2023-07-13T15:58:21;24.00;99.90
8824;DHT22;4448;50.904;4.694;2023-07-13T16:00:47;24.00;99.90
8824;DHT22;4448;50.904;4.694;2023-07-13T16:03:17;24.00;99.90
8824;DHT22;4448;50.904;4.694;2023-07-13T16:05:44;24.00;99.90
8824;DHT22;4448;50.904;4.694;2023-07-13T16:08:31;24.00;99.90
8824;DHT22;4448;50.904;4.694;2023-07-13T16:10:58;24.00;99.90
8824;DHT22;4448;50.904;4.694;2023-07-13T16:13:24;24.00;99.90
8824;DHT22;4448;50.904;4.694;2023-07-13T16:15:51;24.00;99.90
8824;DHT22;4448;50.904;4.694;2023-07-13T16:18:17;24.00;99.90
8824;DHT22;4448;50.904;4.694;2023-07-13T16:20:46;24.00;99.90
8824;DHT22;4448;50.904;4.694;2023-07-13T16:23:14;24.00;99.90
8824;DHT22;4448;50.904;4.694;2023-07-13T16:25:40;23.90;99.90
8824;DHT22;4448;50.904;4.694;2023-07-13T16:28:09;23.90;99.90
8824;DHT22;4448;50.904;4.694;2023-07-13T16:30:35;23.90;99.90
8824;DHT22;4448;50.904;4.694;2023-07-13T16:33:02;23.80;99.90
8824;DHT22;4448;50.904;4.694;2023-07-13T16:35:34;23.80;99.90
8824;DHT22;4448;50.904;4.694;2023-07-13T16:38:02;23.80;99.90
8824;DHT22;4448;50.904;4.694;2023-07-13T16:40:30;23.80;99.90
8824;DHT22;4448;50.904;4.694;2023-07-13T16:42:58;23.70;99.90
8824;DHT22;4448;50.904;4.694;2023-07-13T16:45:26;23.70;99.90
8824;DHT22;4448;50.904;4.694;2023-07-13T16:47:53;23.70;99.90